sensor_id;sensor_type;location;lat;lon;timestamp;P1;durP1;ratioP1;P2;durP2;ratioP2
44564;SDS011;30275;51.822;-0.326;2022-09-03T00:01:22;28.95;;;22.98;;
44564;SDS011;30275;51.822;-0.326;2022-09-03T00:04:01;32.22;;;24.05;;
44564;SDS011;30275;51.822;-0.326;2022-09-03T00:06:42;32.25;;;24.38;;
44564;SDS011;30275;51.822;-0.326;2022-09-03T00:09:20;32.88;;;23.77;;
44564;SDS011;30275;51.822;-0.326;2022-09-03T00:17:14;25.40;;;19.25;;
44564;SDS011;30275;51.822;-0.326;2022-09-03T00:19:53;26.30;;;20.80;;
44564;SDS011;30275;51.822;-0.326;2022-09-03T00:22:27;26.33;;;19.85;;
44564;SDS011;30275;51.822;-0.326;2022-09-03T00:25:01;26.00;;;19.70;;
44564;SDS011;30275;51.822;-0.326;2022-09-03T00:27:30;28.70;;;21.48;;
44564;SDS011;30275;51.822;-0.326;2022-09-03T00:32:39;31.38;;;22.52;;
44564;SDS011;30275;51.822;-0.326;2022-09-03T00:35:10;35.35;;;25.60;;
44564;SDS011;30275;51.822;-0.326;2022-09-03T00:37:41;39.33;;;27.15;;
44564;SDS011;30275;51.822;-0.326;2022-09-03T00:40:10;38.20;;;26.15;;
44564;SDS011;30275;51.822;-0.326;2022-09-03T00:43:00;33.17;;;24.88;;
44564;SDS011;30275;51.822;-0.326;2022-09-03T00:45:57;31.77;;;24.65;;
44564;SDS011;30275;51.822;-0.326;2022-09-03T00:48:29;31.10;;;23.23;;
44564;SDS011;30275;51.822;-0.326;2022-09-03T00:51:10;28.10;;;22.20;;
44564;SDS011;30275;51.822;-0.326;2022-09-03T00:53:50;28.00;;;22.52;;
44564;SDS011;30275;51.822;-0.326;2022-09-03T01:02:12;35.33;;;24.90;;
44564;SDS011;30275;51.822;-0.326;2022-09-03T01:05:04;29.88;;;21.85;;
44564;SDS011;30275;51.822;-0.326;2022-09-03T01:07:47;29.25;;;22.80;;
44564;SDS011;30275;51.822;-0.326;2022-09-03T01:13:21;32.25;;;22.13;;
44564;SDS011;30275;51.822;-0.326;2022-09-03T01:16:08;27.77;;;21.75;;
44564;SDS011;30275;51.822;-0.326;2022-09-03T01:18:48;29.50;;;22.98;;
44564;SDS011;30275;51.822;-0.326;2022-09-03T01:24:24;26.52;;;20.30;;
44564;SDS011;30275;51.822;-0.326;2022-09-03T01:32:47;31.73;;;23.48;;
44564;SDS011;30275;51.822;-0.326;2022-09-03T01:38:00;34.40;;;22.73;;
44564;SDS011;30275;51.822;-0.326;2022-09-03T01:40:55;34.08;;;24.98;;
44564;SDS011;30275;51.822;-0.326;2022-09-03T01:46:38;30.35;;;22.15;;
44564;SDS011;30275;51.822;-0.326;2022-09-03T01:49:10;31.58;;;23.75;;
44564;SDS011;30275;51.822;-0.326;2022-09-03T01:51:40;28.95;;;21.55;;
44564;SDS011;30275;51.822;-0.326;2022-09-03T02:00:18;29.75;;;20.35;;
44564;SDS011;30275;51.822;-0.326;2022-09-03T02:02:37;27.27;;;20.92;;
44564;SDS011;30275;51.822;-0.326;2022-09-03T02:05:18;26.35;;;21.67;;
44564;SDS011;30275;51.822;-0.326;2022-09-03T02:07:49;30.02;;;22.40;;
44564;SDS011;30275;51.822;-0.326;2022-09-03T02:10:19;28.13;;;20.63;;
44564;SDS011;30275;51.822;-0.326;2022-09-03T02:12:53;30.27;;;21.95;;
44564;SDS011;30275;51.822;-0.326;2022-09-03T02:15:25;26.73;;;20.38;;
44564;SDS011;30275;51.822;-0.326;2022-09-03T02:17:53;25.52;;;19.45;;
44564;SDS011;30275;51.822;-0.326;2022-09-03T02:20:25;29.98;;;21.60;;
44564;SDS011;30275;51.822;-0.326;2022-09-03T02:22:52;32.85;;;23.48;;
44564;SDS011;30275;51.822;-0.326;2022-09-03T02:25:19;32.17;;;21.73;;
44564;SDS011;30275;51.822;-0.326;2022-09-03T02:27:48;36.50;;;24.48;;
44564;SDS011;30275;51.822;-0.326;2022-09-03T02:30:15;41.92;;;28.08;;
44564;SDS011;30275;51.822;-0.326;2022-09-03T02:32:42;36.47;;;25.60;;
44564;SDS011;30275;51.822;-0.326;2022-09-03T02:35:08;32.20;;;23.85;;
44564;SDS011;30275;51.822;-0.326;2022-09-03T02:37:34;33.83;;;25.05;;
44564;SDS011;30275;51.822;-0.326;2022-09-03T02:40:00;32.38;;;24.77;;
44564;SDS011;30275;51.822;-0.326;2022-09-03T02:42:30;34.85;;;25.35;;
44564;SDS011;30275;51.822;-0.326;2022-09-03T02:44:58;30.38;;;21.75;;
44564;SDS011;30275;51.822;-0.326;2022-09-03T02:47:30;27.77;;;20.17;;
44564;SDS011;30275;51.822;-0.326;2022-09-03T02:49:57;24.77;;;19.40;;
44564;SDS011;30275;51.822;-0.326;2022-09-03T02:52:22;25.73;;;19.65;;
44564;SDS011;30275;51.822;-0.326;2022-09-03T02:54:48;24.27;;;19.00;;
44564;SDS011;30275;51.822;-0.326;2022-09-03T02:57:14;25.48;;;20.33;;
44564;SDS011;30275;51.822;-0.326;2022-09-03T02:59:42;27.98;;;21.05;;
44564;SDS011;30275;51.822;-0.326;2022-09-03T03:02:10;25.15;;;20.65;;
44564;SDS011;30275;51.822;-0.326;2022-09-03T03:04:36;25.15;;;20.30;;
44564;SDS011;30275;51.822;-0.326;2022-09-03T03:07:03;29.58;;;22.15;;
44564;SDS011;30275;51.822;-0.326;2022-09-03T03:09:29;32.33;;;22.70;;
44564;SDS011;30275;51.822;-0.326;2022-09-03T03:11:55;30.13;;;22.23;;
44564;SDS011;30275;51.822;-0.326;2022-09-03T03:14:20;28.00;;;21.67;;
44564;SDS011;30275;51.822;-0.326;2022-09-03T03:16:47;32.38;;;23.38;;
44564;SDS011;30275;51.822;-0.326;2022-09-03T03:19:13;32.95;;;24.95;;
44564;SDS011;30275;51.822;-0.326;2022-09-03T03:21:39;30.60;;;23.10;;
44564;SDS011;30275;51.822;-0.326;2022-09-03T03:24:04;30.45;;;23.45;;
44564;SDS011;30275;51.822;-0.326;2022-09-03T03:26:31;30.10;;;21.77;;
44564;SDS011;30275;51.822;-0.326;2022-09-03T03:28:58;30.88;;;21.00;;
44564;SDS011;30275;51.822;-0.326;2022-09-03T03:31:24;27.05;;;20.10;;
44564;SDS011;30275;51.822;-0.326;2022-09-03T03:33:55;26.58;;;18.92;;
44564;SDS011;30275;51.822;-0.326;2022-09-03T03:36:23;30.95;;;22.58;;
44564;SDS011;30275;51.822;-0.326;2022-09-03T03:38:54;24.10;;;19.23;;
44564;SDS011;30275;51.822;-0.326;2022-09-03T03:41:21;28.52;;;19.98;;
44564;SDS011;30275;51.822;-0.326;2022-09-03T03:43:52;24.45;;;19.95;;
44564;SDS011;30275;51.822;-0.326;2022-09-03T03:46:23;29.02;;;20.73;;
44564;SDS011;30275;51.822;-0.326;2022-09-03T03:48:50;27.30;;;20.10;;
44564;SDS011;30275;51.822;-0.326;2022-09-03T03:51:16;29.38;;;20.85;;
44564;SDS011;30275;51.822;-0.326;2022-09-03T03:53:43;28.08;;;20.77;;
44564;SDS011;30275;51.822;-0.326;2022-09-03T03:56:10;28.20;;;21.10;;
44564;SDS011;30275;51.822;-0.326;2022-09-03T03:58:37;29.10;;;22.80;;
44564;SDS011;30275;51.822;-0.326;2022-09-03T04:01:15;28.10;;;21.00;;
44564;SDS011;30275;51.822;-0.326;2022-09-03T04:03:43;28.70;;;21.83;;
44564;SDS011;30275;51.822;-0.326;2022-09-03T04:06:10;30.65;;;22.70;;
44564;SDS011;30275;51.822;-0.326;2022-09-03T04:08:38;29.20;;;20.80;;
44564;SDS011;30275;51.822;-0.326;2022-09-03T04:11:07;28.73;;;21.40;;
44564;SDS011;30275;51.822;-0.326;2022-09-03T04:13:38;29.88;;;21.88;;
44564;SDS011;30275;51.822;-0.326;2022-09-03T04:16:09;32.22;;;23.90;;
44564;SDS011;30275;51.822;-0.326;2022-09-03T04:18:36;30.73;;;22.13;;
44564;SDS011;30275;51.822;-0.326;2022-09-03T04:21:04;32.63;;;24.35;;
44564;SDS011;30275;51.822;-0.326;2022-09-03T04:23:34;35.43;;;24.97;;
44564;SDS011;30275;51.822;-0.326;2022-09-03T04:26:02;35.13;;;25.80;;
44564;SDS011;30275;51.822;-0.326;2022-09-03T04:28:28;31.80;;;23.38;;
44564;SDS011;30275;51.822;-0.326;2022-09-03T04:30:58;31.23;;;22.75;;
44564;SDS011;30275;51.822;-0.326;2022-09-03T04:33:29;31.63;;;22.80;;
44564;SDS011;30275;51.822;-0.326;2022-09-03T04:36:02;29.75;;;23.05;;
44564;SDS011;30275;51.822;-0.326;2022-09-03T04:38:30;29.50;;;20.95;;
44564;SDS011;30275;51.822;-0.326;2022-09-03T04:40:56;28.48;;;22.33;;
44564;SDS011;30275;51.822;-0.326;2022-09-03T04:43:23;30.80;;;23.15;;
44564;SDS011;30275;51.822;-0.326;2022-09-03T04:45:50;31.35;;;22.45;;
44564;SDS011;30275;51.822;-0.326;2022-09-03T04:48:15;30.35;;;21.33;;
44564;SDS011;30275;51.822;-0.326;2022-09-03T04:50:41;30.40;;;21.77;;
44564;SDS011;30275;51.822;-0.326;2022-09-03T04:53:06;27.63;;;21.02;;
44564;SDS011;30275;51.822;-0.326;2022-09-03T04:55:33;26.50;;;18.73;;
44564;SDS011;30275;51.822;-0.326;2022-09-03T04:57:59;30.30;;;21.88;;
44564;SDS011;30275;51.822;-0.326;2022-09-03T05:00:25;27.35;;;21.10;;
44564;SDS011;30275;51.822;-0.326;2022-09-03T05:02:51;28.20;;;22.35;;
44564;SDS011;30275;51.822;-0.326;2022-09-03T05:05:17;28.73;;;21.77;;
44564;SDS011;30275;51.822;-0.326;2022-09-03T05:07:43;33.88;;;23.23;;
44564;SDS011;30275;51.822;-0.326;2022-09-03T05:10:09;30.00;;;22.40;;
44564;SDS011;30275;51.822;-0.326;2022-09-03T05:12:40;28.40;;;22.23;;
44564;SDS011;30275;51.822;-0.326;2022-09-03T05:15:06;28.90;;;22.40;;
44564;SDS011;30275;51.822;-0.326;2022-09-03T05:17:32;27.90;;;21.27;;
44564;SDS011;30275;51.822;-0.326;2022-09-03T05:19:58;28.88;;;22.10;;
44564;SDS011;30275;51.822;-0.326;2022-09-03T05:22:23;25.85;;;20.95;;
44564;SDS011;30275;51.822;-0.326;2022-09-03T05:24:49;27.40;;;22.25;;
44564;SDS011;30275;51.822;-0.326;2022-09-03T05:27:15;31.67;;;22.63;;
44564;SDS011;30275;51.822;-0.326;2022-09-03T05:29:44;32.33;;;23.75;;
44564;SDS011;30275;51.822;-0.326;2022-09-03T05:32:10;29.58;;;22.23;;
44564;SDS011;30275;51.822;-0.326;2022-09-03T05:34:41;33.72;;;22.77;;
44564;SDS011;30275;51.822;-0.326;2022-09-03T05:37:07;29.63;;;23.98;;
44564;SDS011;30275;51.822;-0.326;2022-09-03T05:39:33;31.20;;;23.05;;
44564;SDS011;30275;51.822;-0.326;2022-09-03T05:41:58;28.50;;;21.88;;
44564;SDS011;30275;51.822;-0.326;2022-09-03T05:58:06;25.38;;;21.20;;
44564;SDS011;30275;51.822;-0.326;2022-09-03T06:00:31;26.40;;;21.38;;
44564;SDS011;30275;51.822;-0.326;2022-09-03T06:02:57;27.40;;;21.77;;
44564;SDS011;30275;51.822;-0.326;2022-09-03T06:05:23;29.23;;;23.35;;
44564;SDS011;30275;51.822;-0.326;2022-09-03T06:07:50;33.92;;;23.75;;
44564;SDS011;30275;51.822;-0.326;2022-09-03T06:10:16;30.42;;;22.40;;
44564;SDS011;30275;51.822;-0.326;2022-09-03T06:12:42;30.77;;;22.83;;
44564;SDS011;30275;51.822;-0.326;2022-09-03T06:15:13;32.70;;;23.77;;
44564;SDS011;30275;51.822;-0.326;2022-09-03T06:17:40;30.60;;;23.15;;
44564;SDS011;30275;51.822;-0.326;2022-09-03T06:20:06;30.73;;;23.38;;
44564;SDS011;30275;51.822;-0.326;2022-09-03T06:22:33;29.25;;;20.77;;
44564;SDS011;30275;51.822;-0.326;2022-09-03T06:24:59;31.33;;;24.80;;
44564;SDS011;30275;51.822;-0.326;2022-09-03T06:27:24;32.88;;;24.17;;
44564;SDS011;30275;51.822;-0.326;2022-09-03T06:29:52;32.28;;;23.20;;
44564;SDS011;30275;51.822;-0.326;2022-09-03T06:32:18;34.92;;;24.50;;
44564;SDS011;30275;51.822;-0.326;2022-09-03T06:34:44;32.55;;;24.33;;
44564;SDS011;30275;51.822;-0.326;2022-09-03T06:37:10;31.17;;;23.98;;
44564;SDS011;30275;51.822;-0.326;2022-09-03T06:39:35;33.25;;;26.05;;
44564;SDS011;30275;51.822;-0.326;2022-09-03T06:42:01;34.58;;;25.80;;
44564;SDS011;30275;51.822;-0.326;2022-09-03T06:44:26;34.28;;;25.80;;
44564;SDS011;30275;51.822;-0.326;2022-09-03T06:46:52;32.05;;;24.73;;
44564;SDS011;30275;51.822;-0.326;2022-09-03T06:49:18;35.55;;;26.23;;
44564;SDS011;30275;51.822;-0.326;2022-09-03T06:51:44;35.20;;;25.70;;
44564;SDS011;30275;51.822;-0.326;2022-09-03T06:54:10;30.50;;;24.25;;
44564;SDS011;30275;51.822;-0.326;2022-09-03T06:56:37;28.83;;;20.75;;
44564;SDS011;30275;51.822;-0.326;2022-09-03T06:59:05;34.08;;;25.95;;
44564;SDS011;30275;51.822;-0.326;2022-09-03T07:01:35;30.92;;;24.52;;
44564;SDS011;30275;51.822;-0.326;2022-09-03T07:04:05;34.42;;;25.33;;
44564;SDS011;30275;51.822;-0.326;2022-09-03T07:06:35;35.13;;;26.02;;
44564;SDS011;30275;51.822;-0.326;2022-09-03T07:09:02;36.45;;;26.95;;
44564;SDS011;30275;51.822;-0.326;2022-09-03T07:11:29;36.88;;;25.50;;
44564;SDS011;30275;51.822;-0.326;2022-09-03T07:13:57;33.92;;;25.85;;
44564;SDS011;30275;51.822;-0.326;2022-09-03T07:16:24;30.83;;;24.42;;
44564;SDS011;30275;51.822;-0.326;2022-09-03T07:18:52;33.58;;;25.05;;
44564;SDS011;30275;51.822;-0.326;2022-09-03T07:21:19;28.90;;;21.52;;
44564;SDS011;30275;51.822;-0.326;2022-09-03T07:23:47;27.75;;;19.90;;
44564;SDS011;30275;51.822;-0.326;2022-09-03T07:26:15;31.50;;;20.48;;
44564;SDS011;30275;51.822;-0.326;2022-09-03T07:28:43;31.38;;;22.20;;
44564;SDS011;30275;51.822;-0.326;2022-09-03T07:31:14;30.92;;;23.38;;
44564;SDS011;30275;51.822;-0.326;2022-09-03T07:33:43;33.58;;;21.73;;
44564;SDS011;30275;51.822;-0.326;2022-09-03T07:36:09;28.05;;;21.17;;
44564;SDS011;30275;51.822;-0.326;2022-09-03T07:38:38;28.17;;;21.75;;
44564;SDS011;30275;51.822;-0.326;2022-09-03T07:41:06;29.08;;;23.08;;
44564;SDS011;30275;51.822;-0.326;2022-09-03T07:43:34;30.13;;;23.92;;
44564;SDS011;30275;51.822;-0.326;2022-09-03T07:46:07;28.33;;;21.50;;
44564;SDS011;30275;51.822;-0.326;2022-09-03T07:48:34;32.00;;;22.17;;
44564;SDS011;30275;51.822;-0.326;2022-09-03T07:50:59;26.08;;;19.48;;
44564;SDS011;30275;51.822;-0.326;2022-09-03T07:53:26;28.27;;;20.67;;
44564;SDS011;30275;51.822;-0.326;2022-09-03T07:55:53;29.02;;;21.38;;
44564;SDS011;30275;51.822;-0.326;2022-09-03T07:58:27;24.15;;;18.40;;
44564;SDS011;30275;51.822;-0.326;2022-09-03T08:00:53;22.30;;;17.20;;
44564;SDS011;30275;51.822;-0.326;2022-09-03T08:03:21;20.17;;;16.67;;
44564;SDS011;30275;51.822;-0.326;2022-09-03T08:05:46;22.13;;;15.15;;
44564;SDS011;30275;51.822;-0.326;2022-09-03T08:08:12;17.35;;;13.32;;
44564;SDS011;30275;51.822;-0.326;2022-09-03T08:10:39;18.92;;;14.27;;
44564;SDS011;30275;51.822;-0.326;2022-09-03T08:13:05;22.23;;;15.13;;
44564;SDS011;30275;51.822;-0.326;2022-09-03T08:15:31;18.23;;;13.52;;
44564;SDS011;30275;51.822;-0.326;2022-09-03T08:17:58;17.98;;;13.10;;
44564;SDS011;30275;51.822;-0.326;2022-09-03T08:20:25;16.38;;;12.38;;
44564;SDS011;30275;51.822;-0.326;2022-09-03T08:22:51;14.52;;;11.68;;
44564;SDS011;30275;51.822;-0.326;2022-09-03T08:25:17;16.65;;;12.05;;
44564;SDS011;30275;51.822;-0.326;2022-09-03T08:27:43;14.40;;;11.15;;
44564;SDS011;30275;51.822;-0.326;2022-09-03T08:30:09;14.93;;;11.63;;
44564;SDS011;30275;51.822;-0.326;2022-09-03T08:32:38;13.77;;;10.63;;
44564;SDS011;30275;51.822;-0.326;2022-09-03T08:35:05;13.93;;;10.02;;
44564;SDS011;30275;51.822;-0.326;2022-09-03T08:37:33;13.57;;;10.70;;
44564;SDS011;30275;51.822;-0.326;2022-09-03T08:39:59;13.20;;;9.30;;
44564;SDS011;30275;51.822;-0.326;2022-09-03T08:42:30;12.05;;;9.27;;
44564;SDS011;30275;51.822;-0.326;2022-09-03T08:45:24;12.25;;;9.05;;
44564;SDS011;30275;51.822;-0.326;2022-09-03T08:47:59;9.25;;;7.78;;
44564;SDS011;30275;51.822;-0.326;2022-09-03T08:50:39;8.07;;;7.13;;
44564;SDS011;30275;51.822;-0.326;2022-09-03T08:53:27;8.80;;;6.97;;
44564;SDS011;30275;51.822;-0.326;2022-09-03T08:56:09;9.32;;;7.35;;
44564;SDS011;30275;51.822;-0.326;2022-09-03T08:58:49;12.10;;;7.97;;
44564;SDS011;30275;51.822;-0.326;2022-09-03T09:01:19;9.25;;;7.32;;
44564;SDS011;30275;51.822;-0.326;2022-09-03T09:07:11;8.77;;;5.90;;
44564;SDS011;30275;51.822;-0.326;2022-09-03T09:12:40;8.07;;;5.43;;
44564;SDS011;30275;51.822;-0.326;2022-09-03T09:20:54;8.02;;;6.35;;
44564;SDS011;30275;51.822;-0.326;2022-09-03T09:23:39;9.07;;;6.40;;
44564;SDS011;30275;51.822;-0.326;2022-09-03T09:26:17;8.32;;;6.40;;
44564;SDS011;30275;51.822;-0.326;2022-09-03T09:28:53;7.55;;;6.05;;
44564;SDS011;30275;51.822;-0.326;2022-09-03T09:31:32;6.97;;;5.82;;
44564;SDS011;30275;51.822;-0.326;2022-09-03T09:34:04;6.93;;;5.90;;
44564;SDS011;30275;51.822;-0.326;2022-09-03T09:36:31;10.25;;;6.40;;
44564;SDS011;30275;51.822;-0.326;2022-09-03T09:39:08;9.88;;;6.50;;
44564;SDS011;30275;51.822;-0.326;2022-09-03T09:41:34;10.07;;;7.55;;
44564;SDS011;30275;51.822;-0.326;2022-09-03T09:44:00;7.28;;;6.28;;
44564;SDS011;30275;51.822;-0.326;2022-09-03T09:46:33;9.77;;;7.32;;
44564;SDS011;30275;51.822;-0.326;2022-09-03T09:49:01;9.35;;;6.97;;
44564;SDS011;30275;51.822;-0.326;2022-09-03T09:51:28;8.15;;;6.65;;
44564;SDS011;30275;51.822;-0.326;2022-09-03T09:56:38;7.20;;;6.35;;
44564;SDS011;30275;51.822;-0.326;2022-09-03T09:59:07;13.02;;;6.47;;
44564;SDS011;30275;51.822;-0.326;2022-09-03T10:01:41;7.70;;;6.07;;
44564;SDS011;30275;51.822;-0.326;2022-09-03T10:04:12;6.70;;;5.22;;
44564;SDS011;30275;51.822;-0.326;2022-09-03T10:06:52;7.70;;;4.93;;
44564;SDS011;30275;51.822;-0.326;2022-09-03T10:14:39;7.68;;;5.80;;
44564;SDS011;30275;51.822;-0.326;2022-09-03T10:22:53;11.15;;;6.07;;
44564;SDS011;30275;51.822;-0.326;2022-09-03T10:25:20;7.80;;;5.68;;
44564;SDS011;30275;51.822;-0.326;2022-09-03T10:27:50;7.72;;;6.05;;
44564;SDS011;30275;51.822;-0.326;2022-09-03T10:30:17;7.57;;;5.60;;
44564;SDS011;30275;51.822;-0.326;2022-09-03T10:33:07;9.20;;;5.95;;
44564;SDS011;30275;51.822;-0.326;2022-09-03T10:35:37;4.70;;;4.13;;
44564;SDS011;30275;51.822;-0.326;2022-09-03T10:40:54;6.87;;;5.10;;
44564;SDS011;30275;51.822;-0.326;2022-09-03T10:46:25;7.47;;;4.90;;
44564;SDS011;30275;51.822;-0.326;2022-09-03T10:52:02;5.70;;;4.60;;
44564;SDS011;30275;51.822;-0.326;2022-09-03T10:57:50;5.45;;;4.72;;
44564;SDS011;30275;51.822;-0.326;2022-09-03T11:00:40;6.28;;;4.75;;
44564;SDS011;30275;51.822;-0.326;2022-09-03T11:11:25;8.23;;;3.85;;
44564;SDS011;30275;51.822;-0.326;2022-09-03T11:14:06;11.13;;;3.85;;
44564;SDS011;30275;51.822;-0.326;2022-09-03T11:16:36;5.07;;;3.53;;
44564;SDS011;30275;51.822;-0.326;2022-09-03T11:19:10;7.97;;;3.65;;
44564;SDS011;30275;51.822;-0.326;2022-09-03T11:21:40;8.68;;;3.67;;
44564;SDS011;30275;51.822;-0.326;2022-09-03T11:24:21;7.63;;;3.70;;
44564;SDS011;30275;51.822;-0.326;2022-09-03T11:30:04;8.57;;;3.10;;
44564;SDS011;30275;51.822;-0.326;2022-09-03T11:33:04;6.35;;;3.40;;
44564;SDS011;30275;51.822;-0.326;2022-09-03T11:40:32;6.53;;;2.97;;
44564;SDS011;30275;51.822;-0.326;2022-09-03T11:43:42;4.53;;;2.78;;
44564;SDS011;30275;51.822;-0.326;2022-09-03T11:46:10;6.18;;;3.28;;
44564;SDS011;30275;51.822;-0.326;2022-09-03T11:51:16;3.45;;;2.95;;
44564;SDS011;30275;51.822;-0.326;2022-09-03T11:53:54;5.50;;;3.10;;
44564;SDS011;30275;51.822;-0.326;2022-09-03T11:56:26;5.72;;;2.70;;
44564;SDS011;30275;51.822;-0.326;2022-09-03T12:01:37;4.38;;;2.70;;
44564;SDS011;30275;51.822;-0.326;2022-09-03T12:04:25;3.28;;;2.78;;
44564;SDS011;30275;51.822;-0.326;2022-09-03T12:07:15;3.58;;;2.70;;
44564;SDS011;30275;51.822;-0.326;2022-09-03T12:15:03;4.45;;;2.85;;
44564;SDS011;30275;51.822;-0.326;2022-09-03T12:19:58;4.55;;;2.75;;
44564;SDS011;30275;51.822;-0.326;2022-09-03T12:22:28;3.30;;;3.00;;
44564;SDS011;30275;51.822;-0.326;2022-09-03T12:24:55;3.58;;;2.78;;
44564;SDS011;30275;51.822;-0.326;2022-09-03T12:27:31;4.22;;;2.75;;
44564;SDS011;30275;51.822;-0.326;2022-09-03T12:29:58;2.78;;;2.55;;
44564;SDS011;30275;51.822;-0.326;2022-09-03T12:32:30;3.50;;;2.60;;
44564;SDS011;30275;51.822;-0.326;2022-09-03T12:37:41;4.15;;;2.33;;
44564;SDS011;30275;51.822;-0.326;2022-09-03T12:40:23;3.63;;;2.58;;
44564;SDS011;30275;51.822;-0.326;2022-09-03T12:42:51;4.50;;;2.40;;
44564;SDS011;30275;51.822;-0.326;2022-09-03T12:45:18;4.55;;;2.70;;
44564;SDS011;30275;51.822;-0.326;2022-09-03T12:47:47;3.40;;;2.58;;
44564;SDS011;30275;51.822;-0.326;2022-09-03T12:50:14;4.35;;;2.63;;
44564;SDS011;30275;51.822;-0.326;2022-09-03T12:52:51;2.83;;;2.35;;
44564;SDS011;30275;51.822;-0.326;2022-09-03T13:09:14;3.10;;;2.80;;
44564;SDS011;30275;51.822;-0.326;2022-09-03T13:11:44;4.32;;;2.90;;
44564;SDS011;30275;51.822;-0.326;2022-09-03T13:14:11;3.28;;;2.70;;
44564;SDS011;30275;51.822;-0.326;2022-09-03T13:24:22;2.90;;;2.65;;
44564;SDS011;30275;51.822;-0.326;2022-09-03T13:30:01;6.93;;;3.67;;
44564;SDS011;30275;51.822;-0.326;2022-09-03T13:45:57;10.25;;;6.15;;
44564;SDS011;30275;51.822;-0.326;2022-09-03T13:48:40;7.60;;;4.75;;
44564;SDS011;30275;51.822;-0.326;2022-09-03T13:51:31;9.50;;;5.63;;
44564;SDS011;30275;51.822;-0.326;2022-09-03T13:57:09;7.93;;;5.13;;
44564;SDS011;30275;51.822;-0.326;2022-09-03T14:00:09;10.60;;;5.15;;
44564;SDS011;30275;51.822;-0.326;2022-09-03T14:13:01;10.07;;;4.85;;
44564;SDS011;30275;51.822;-0.326;2022-09-03T14:15:54;9.13;;;5.15;;
44564;SDS011;30275;51.822;-0.326;2022-09-03T14:18:34;5.07;;;4.13;;
44564;SDS011;30275;51.822;-0.326;2022-09-03T14:21:14;6.50;;;4.03;;
44564;SDS011;30275;51.822;-0.326;2022-09-03T14:23:54;6.40;;;3.47;;
44564;SDS011;30275;51.822;-0.326;2022-09-03T14:26:35;7.40;;;3.90;;
44564;SDS011;30275;51.822;-0.326;2022-09-03T14:29:03;8.50;;;3.92;;
44564;SDS011;30275;51.822;-0.326;2022-09-03T14:34:26;5.03;;;3.78;;
44564;SDS011;30275;51.822;-0.326;2022-09-03T14:39:54;5.82;;;4.00;;
44564;SDS011;30275;51.822;-0.326;2022-09-03T14:42:40;7.90;;;4.78;;
44564;SDS011;30275;51.822;-0.326;2022-09-03T14:51:15;5.90;;;4.97;;
44564;SDS011;30275;51.822;-0.326;2022-09-03T14:56:46;7.25;;;5.20;;
44564;SDS011;30275;51.822;-0.326;2022-09-03T14:59:42;6.95;;;4.95;;
44564;SDS011;30275;51.822;-0.326;2022-09-03T15:02:31;4.95;;;4.15;;
44564;SDS011;30275;51.822;-0.326;2022-09-03T15:10:31;5.53;;;4.07;;
44564;SDS011;30275;51.822;-0.326;2022-09-03T15:13:17;8.88;;;4.65;;
44564;SDS011;30275;51.822;-0.326;2022-09-03T15:35:08;8.25;;;5.93;;
44564;SDS011;30275;51.822;-0.326;2022-09-03T15:38:04;7.80;;;5.65;;
44564;SDS011;30275;51.822;-0.326;2022-09-03T15:40:53;6.97;;;5.18;;
44564;SDS011;30275;51.822;-0.326;2022-09-03T15:43:24;8.00;;;6.07;;
44564;SDS011;30275;51.822;-0.326;2022-09-03T15:45:54;7.05;;;5.88;;
44564;SDS011;30275;51.822;-0.326;2022-09-03T15:56:21;9.18;;;6.40;;
44564;SDS011;30275;51.822;-0.326;2022-09-03T15:59:11;6.38;;;5.57;;
44564;SDS011;30275;51.822;-0.326;2022-09-03T16:10:17;6.10;;;4.30;;
44564;SDS011;30275;51.822;-0.326;2022-09-03T16:15:14;6.57;;;4.53;;
44564;SDS011;30275;51.822;-0.326;2022-09-03T16:20:38;5.25;;;3.85;;
44564;SDS011;30275;51.822;-0.326;2022-09-03T16:23:14;6.40;;;4.30;;
44564;SDS011;30275;51.822;-0.326;2022-09-03T16:26:15;5.15;;;4.38;;
44564;SDS011;30275;51.822;-0.326;2022-09-03T16:28:54;6.00;;;4.47;;
44564;SDS011;30275;51.822;-0.326;2022-09-03T16:36:51;6.30;;;4.93;;
44564;SDS011;30275;51.822;-0.326;2022-09-03T17:05:02;6.32;;;5.60;;
44564;SDS011;30275;51.822;-0.326;2022-09-03T17:10:47;6.78;;;5.05;;
44564;SDS011;30275;51.822;-0.326;2022-09-03T17:13:39;5.72;;;4.55;;
44564;SDS011;30275;51.822;-0.326;2022-09-03T17:19:25;6.03;;;4.82;;
44564;SDS011;30275;51.822;-0.326;2022-09-03T17:22:05;6.00;;;4.88;;
44564;SDS011;30275;51.822;-0.326;2022-09-03T17:24:51;5.68;;;4.80;;
44564;SDS011;30275;51.822;-0.326;2022-09-03T17:27:37;4.60;;;4.10;;
44564;SDS011;30275;51.822;-0.326;2022-09-03T17:30:20;6.28;;;4.57;;
44564;SDS011;30275;51.822;-0.326;2022-09-03T17:38:36;5.38;;;4.40;;
44564;SDS011;30275;51.822;-0.326;2022-09-03T17:41:13;5.85;;;5.10;;
44564;SDS011;30275;51.822;-0.326;2022-09-03T17:46:46;6.68;;;4.88;;
44564;SDS011;30275;51.822;-0.326;2022-09-03T17:49:29;8.10;;;5.18;;
44564;SDS011;30275;51.822;-0.326;2022-09-03T17:52:04;7.20;;;4.55;;
44564;SDS011;30275;51.822;-0.326;2022-09-03T17:57:21;5.35;;;4.85;;
44564;SDS011;30275;51.822;-0.326;2022-09-03T18:02:30;6.75;;;4.80;;
44564;SDS011;30275;51.822;-0.326;2022-09-03T18:07:31;6.03;;;4.90;;
44564;SDS011;30275;51.822;-0.326;2022-09-03T18:16:14;6.63;;;4.78;;
44564;SDS011;30275;51.822;-0.326;2022-09-03T18:18:49;6.43;;;5.20;;
44564;SDS011;30275;51.822;-0.326;2022-09-03T18:21:20;8.88;;;5.50;;
44564;SDS011;30275;51.822;-0.326;2022-09-03T18:27:10;6.43;;;5.13;;
44564;SDS011;30275;51.822;-0.326;2022-09-03T18:30:06;5.55;;;4.70;;
44564;SDS011;30275;51.822;-0.326;2022-09-03T18:32:55;5.65;;;5.10;;
44564;SDS011;30275;51.822;-0.326;2022-09-03T18:35:41;6.93;;;5.55;;
44564;SDS011;30275;51.822;-0.326;2022-09-03T18:38:29;7.22;;;5.47;;
44564;SDS011;30275;51.822;-0.326;2022-09-03T18:47:36;5.97;;;5.30;;
44564;SDS011;30275;51.822;-0.326;2022-09-03T18:50:41;6.28;;;5.45;;
44564;SDS011;30275;51.822;-0.326;2022-09-03T18:56:57;7.05;;;6.05;;
44564;SDS011;30275;51.822;-0.326;2022-09-03T18:59:48;8.40;;;6.70;;
44564;SDS011;30275;51.822;-0.326;2022-09-03T19:02:49;8.43;;;5.72;;
44564;SDS011;30275;51.822;-0.326;2022-09-03T19:08:56;7.32;;;6.05;;
44564;SDS011;30275;51.822;-0.326;2022-09-03T19:15:04;7.07;;;6.00;;
44564;SDS011;30275;51.822;-0.326;2022-09-03T19:21:39;9.07;;;5.80;;
44564;SDS011;30275;51.822;-0.326;2022-09-03T19:24:30;10.18;;;6.90;;
44564;SDS011;30275;51.822;-0.326;2022-09-03T19:33:52;14.40;;;6.68;;
44564;SDS011;30275;51.822;-0.326;2022-09-03T19:36:43;19.77;;;6.60;;
44564;SDS011;30275;51.822;-0.326;2022-09-03T19:52:13;14.25;;;6.00;;
44564;SDS011;30275;51.822;-0.326;2022-09-03T19:55:09;18.98;;;6.45;;
44564;SDS011;30275;51.822;-0.326;2022-09-03T19:57:58;16.02;;;6.22;;
44564;SDS011;30275;51.822;-0.326;2022-09-03T20:00:43;12.52;;;5.63;;
44564;SDS011;30275;51.822;-0.326;2022-09-03T20:03:28;13.07;;;5.50;;
44564;SDS011;30275;51.822;-0.326;2022-09-03T20:06:13;11.32;;;6.10;;
44564;SDS011;30275;51.822;-0.326;2022-09-03T20:09:00;12.63;;;5.90;;
44564;SDS011;30275;51.822;-0.326;2022-09-03T20:11:49;13.95;;;6.43;;
44564;SDS011;30275;51.822;-0.326;2022-09-03T20:14:16;11.32;;;6.32;;
44564;SDS011;30275;51.822;-0.326;2022-09-03T20:21:58;11.00;;;6.32;;
44564;SDS011;30275;51.822;-0.326;2022-09-03T20:24:40;16.73;;;7.07;;
44564;SDS011;30275;51.822;-0.326;2022-09-03T20:30:14;12.88;;;6.55;;
44564;SDS011;30275;51.822;-0.326;2022-09-03T20:32:59;14.95;;;5.45;;
44564;SDS011;30275;51.822;-0.326;2022-09-03T20:43:57;29.27;;;8.07;;
44564;SDS011;30275;51.822;-0.326;2022-09-03T20:55:03;18.85;;;7.85;;